sensor_id;sensor_type;location;lat;lon;timestamp;P1;durP1;ratioP1;P2;durP2;ratioP2
81508;SDS011;70930;52.412;13.554;2024-03-22T00:00:46;12.10;;;8.25;;
81508;SDS011;70930;52.412;13.554;2024-03-22T00:03:12;14.13;;;9.00;;
81508;SDS011;70930;52.412;13.554;2024-03-22T00:05:37;14.30;;;8.77;;
81508;SDS011;70930;52.412;13.554;2024-03-22T00:08:02;11.35;;;7.90;;
81508;SDS011;70930;52.412;13.554;2024-03-22T00:10:28;12.15;;;7.95;;
81508;SDS011;70930;52.412;13.554;2024-03-22T00:12:53;11.45;;;8.38;;
81508;SDS011;70930;52.412;13.554;2024-03-22T00:15:19;11.95;;;7.90;;
81508;SDS011;70930;52.412;13.554;2024-03-22T00:17:44;12.68;;;8.38;;
81508;SDS011;70930;52.412;13.554;2024-03-22T00:20:10;12.88;;;8.02;;
81508;SDS011;70930;52.412;13.554;2024-03-22T00:22:35;14.90;;;8.75;;
81508;SDS011;70930;52.412;13.554;2024-03-22T00:25:01;13.52;;;8.63;;
81508;SDS011;70930;52.412;13.554;2024-03-22T00:27:26;12.90;;;8.75;;
81508;SDS011;70930;52.412;13.554;2024-03-22T00:29:51;14.52;;;8.80;;
81508;SDS011;70930;52.412;13.554;2024-03-22T00:32:20;13.13;;;8.38;;
81508;SDS011;70930;52.412;13.554;2024-03-22T00:34:45;16.35;;;9.80;;
81508;SDS011;70930;52.412;13.554;2024-03-22T00:37:10;12.00;;;8.35;;
81508;SDS011;70930;52.412;13.554;2024-03-22T00:39:36;15.48;;;9.57;;
81508;SDS011;70930;52.412;13.554;2024-03-22T00:42:04;14.65;;;9.00;;
81508;SDS011;70930;52.412;13.554;2024-03-22T00:44:29;15.93;;;9.68;;
81508;SDS011;70930;52.412;13.554;2024-03-22T00:46:55;16.15;;;9.00;;
81508;SDS011;70930;52.412;13.554;2024-03-22T00:49:20;15.88;;;8.35;;
81508;SDS011;70930;52.412;13.554;2024-03-22T00:51:46;15.98;;;9.43;;
81508;SDS011;70930;52.412;13.554;2024-03-22T00:54:12;13.35;;;8.63;;
81508;SDS011;70930;52.412;13.554;2024-03-22T00:56:37;15.63;;;8.57;;
81508;SDS011;70930;52.412;13.554;2024-03-22T00:59:03;15.52;;;9.23;;
81508;SDS011;70930;52.412;13.554;2024-03-22T01:01:28;13.50;;;8.35;;
81508;SDS011;70930;52.412;13.554;2024-03-22T01:03:53;15.90;;;9.13;;
81508;SDS011;70930;52.412;13.554;2024-03-22T01:06:19;18.30;;;9.85;;
81508;SDS011;70930;52.412;13.554;2024-03-22T01:08:49;14.30;;;9.02;;
81508;SDS011;70930;52.412;13.554;2024-03-22T01:11:16;16.35;;;9.45;;
81508;SDS011;70930;52.412;13.554;2024-03-22T01:13:42;17.67;;;9.93;;
81508;SDS011;70930;52.412;13.554;2024-03-22T01:16:07;15.80;;;9.30;;
81508;SDS011;70930;52.412;13.554;2024-03-22T01:18:34;15.75;;;9.05;;
81508;SDS011;70930;52.412;13.554;2024-03-22T01:21:00;17.05;;;9.70;;
81508;SDS011;70930;52.412;13.554;2024-03-22T01:23:26;15.45;;;9.63;;
81508;SDS011;70930;52.412;13.554;2024-03-22T01:25:51;15.93;;;8.68;;
81508;SDS011;70930;52.412;13.554;2024-03-22T01:28:16;16.92;;;10.30;;
81508;SDS011;70930;52.412;13.554;2024-03-22T01:30:42;14.20;;;9.32;;
81508;SDS011;70930;52.412;13.554;2024-03-22T01:33:08;17.42;;;9.80;;
81508;SDS011;70930;52.412;13.554;2024-03-22T01:35:35;19.42;;;10.32;;
81508;SDS011;70930;52.412;13.554;2024-03-22T01:38:01;15.63;;;9.05;;
81508;SDS011;70930;52.412;13.554;2024-03-22T01:40:26;16.70;;;9.98;;
81508;SDS011;70930;52.412;13.554;2024-03-22T01:42:58;18.00;;;9.98;;
81508;SDS011;70930;52.412;13.554;2024-03-22T01:45:24;16.25;;;9.80;;
81508;SDS011;70930;52.412;13.554;2024-03-22T01:47:51;18.38;;;10.35;;
81508;SDS011;70930;52.412;13.554;2024-03-22T01:50:18;20.02;;;11.25;;
81508;SDS011;70930;52.412;13.554;2024-03-22T01:52:45;15.40;;;9.73;;
81508;SDS011;70930;52.412;13.554;2024-03-22T01:55:10;19.52;;;10.68;;
81508;SDS011;70930;52.412;13.554;2024-03-22T01:57:36;15.90;;;8.95;;
81508;SDS011;70930;52.412;13.554;2024-03-22T02:00:03;16.75;;;10.05;;
81508;SDS011;70930;52.412;13.554;2024-03-22T02:02:29;15.15;;;9.15;;
81508;SDS011;70930;52.412;13.554;2024-03-22T02:04:55;16.30;;;9.85;;
81508;SDS011;70930;52.412;13.554;2024-03-22T02:07:22;19.63;;;10.60;;
81508;SDS011;70930;52.412;13.554;2024-03-22T02:09:48;17.55;;;9.70;;
81508;SDS011;70930;52.412;13.554;2024-03-22T02:12:16;21.55;;;11.10;;
81508;SDS011;70930;52.412;13.554;2024-03-22T02:14:42;18.60;;;9.60;;
81508;SDS011;70930;52.412;13.554;2024-03-22T02:17:07;20.77;;;10.93;;
81508;SDS011;70930;52.412;13.554;2024-03-22T02:19:32;22.67;;;11.02;;
81508;SDS011;70930;52.412;13.554;2024-03-22T02:21:58;21.95;;;10.63;;
81508;SDS011;70930;52.412;13.554;2024-03-22T02:24:23;17.25;;;10.25;;
81508;SDS011;70930;52.412;13.554;2024-03-22T02:26:48;16.48;;;9.07;;
81508;SDS011;70930;52.412;13.554;2024-03-22T02:29:14;18.40;;;9.93;;
81508;SDS011;70930;52.412;13.554;2024-03-22T02:31:39;19.88;;;10.25;;
81508;SDS011;70930;52.412;13.554;2024-03-22T02:34:04;20.15;;;10.75;;
81508;SDS011;70930;52.412;13.554;2024-03-22T02:36:30;18.08;;;10.38;;
81508;SDS011;70930;52.412;13.554;2024-03-22T02:38:55;15.93;;;8.68;;
81508;SDS011;70930;52.412;13.554;2024-03-22T02:41:21;15.60;;;9.52;;
81508;SDS011;70930;52.412;13.554;2024-03-22T02:43:47;17.67;;;9.57;;
81508;SDS011;70930;52.412;13.554;2024-03-22T02:46:12;15.35;;;8.95;;
81508;SDS011;70930;52.412;13.554;2024-03-22T02:48:37;18.58;;;9.93;;
81508;SDS011;70930;52.412;13.554;2024-03-22T02:51:03;20.85;;;10.30;;
81508;SDS011;70930;52.412;13.554;2024-03-22T02:53:28;21.20;;;10.88;;
81508;SDS011;70930;52.412;13.554;2024-03-22T02:55:54;19.77;;;9.73;;
81508;SDS011;70930;52.412;13.554;2024-03-22T02:58:20;17.60;;;9.32;;
81508;SDS011;70930;52.412;13.554;2024-03-22T03:00:46;17.33;;;9.35;;
81508;SDS011;70930;52.412;13.554;2024-03-22T03:03:11;19.20;;;9.82;;
81508;SDS011;70930;52.412;13.554;2024-03-22T03:05:36;17.02;;;9.00;;
81508;SDS011;70930;52.412;13.554;2024-03-22T03:08:02;19.77;;;9.40;;
81508;SDS011;70930;52.412;13.554;2024-03-22T03:10:28;19.20;;;9.82;;
81508;SDS011;70930;52.412;13.554;2024-03-22T03:12:54;17.65;;;8.43;;
81508;SDS011;70930;52.412;13.554;2024-03-22T03:15:20;18.52;;;9.10;;
81508;SDS011;70930;52.412;13.554;2024-03-22T03:17:46;19.35;;;9.18;;
81508;SDS011;70930;52.412;13.554;2024-03-22T03:20:11;17.90;;;9.35;;
81508;SDS011;70930;52.412;13.554;2024-03-22T03:22:38;19.85;;;9.38;;
81508;SDS011;70930;52.412;13.554;2024-03-22T03:25:04;20.80;;;9.77;;
81508;SDS011;70930;52.412;13.554;2024-03-22T03:27:30;16.30;;;9.02;;
81508;SDS011;70930;52.412;13.554;2024-03-22T03:29:56;20.25;;;9.32;;
81508;SDS011;70930;52.412;13.554;2024-03-22T03:32:21;19.50;;;8.32;;
81508;SDS011;70930;52.412;13.554;2024-03-22T03:34:46;17.00;;;9.32;;
81508;SDS011;70930;52.412;13.554;2024-03-22T03:37:12;19.98;;;9.93;;
81508;SDS011;70930;52.412;13.554;2024-03-22T03:39:37;20.13;;;9.60;;
81508;SDS011;70930;52.412;13.554;2024-03-22T03:42:02;16.38;;;9.00;;
81508;SDS011;70930;52.412;13.554;2024-03-22T03:44:31;14.85;;;8.55;;
81508;SDS011;70930;52.412;13.554;2024-03-22T03:46:56;15.90;;;8.70;;
81508;SDS011;70930;52.412;13.554;2024-03-22T03:49:21;20.88;;;9.63;;
81508;SDS011;70930;52.412;13.554;2024-03-22T03:51:47;16.30;;;8.20;;
81508;SDS011;70930;52.412;13.554;2024-03-22T03:54:12;18.77;;;8.80;;
81508;SDS011;70930;52.412;13.554;2024-03-22T03:56:38;16.38;;;7.95;;
81508;SDS011;70930;52.412;13.554;2024-03-22T03:59:03;18.95;;;9.15;;
81508;SDS011;70930;52.412;13.554;2024-03-22T04:01:28;18.02;;;8.68;;
81508;SDS011;70930;52.412;13.554;2024-03-22T04:03:54;17.50;;;8.18;;
81508;SDS011;70930;52.412;13.554;2024-03-22T04:06:19;18.33;;;9.25;;
81508;SDS011;70930;52.412;13.554;2024-03-22T04:08:45;16.75;;;9.30;;
81508;SDS011;70930;52.412;13.554;2024-03-22T04:11:10;16.45;;;8.77;;
81508;SDS011;70930;52.412;13.554;2024-03-22T04:13:36;20.00;;;8.60;;
81508;SDS011;70930;52.412;13.554;2024-03-22T04:16:01;19.88;;;10.15;;
81508;SDS011;70930;52.412;13.554;2024-03-22T04:18:27;19.45;;;9.65;;
81508;SDS011;70930;52.412;13.554;2024-03-22T04:20:53;18.42;;;9.30;;
81508;SDS011;70930;52.412;13.554;2024-03-22T04:23:22;16.35;;;7.35;;
81508;SDS011;70930;52.412;13.554;2024-03-22T04:25:54;23.27;;;11.65;;
81508;SDS011;70930;52.412;13.554;2024-03-22T04:28:24;20.52;;;9.63;;
81508;SDS011;70930;52.412;13.554;2024-03-22T04:31:03;19.45;;;10.13;;
81508;SDS011;70930;52.412;13.554;2024-03-22T04:33:30;20.75;;;9.18;;
81508;SDS011;70930;52.412;13.554;2024-03-22T04:35:56;20.23;;;10.52;;
81508;SDS011;70930;52.412;13.554;2024-03-22T04:38:23;19.60;;;9.55;;
81508;SDS011;70930;52.412;13.554;2024-03-22T04:40:49;22.25;;;10.85;;
81508;SDS011;70930;52.412;13.554;2024-03-22T04:43:14;21.90;;;10.00;;
81508;SDS011;70930;52.412;13.554;2024-03-22T04:45:42;19.17;;;10.32;;
81508;SDS011;70930;52.412;13.554;2024-03-22T04:48:07;19.58;;;9.48;;
81508;SDS011;70930;52.412;13.554;2024-03-22T04:50:33;24.95;;;10.77;;
81508;SDS011;70930;52.412;13.554;2024-03-22T04:52:58;22.90;;;10.10;;
81508;SDS011;70930;52.412;13.554;2024-03-22T04:55:24;23.90;;;8.90;;
81508;SDS011;70930;52.412;13.554;2024-03-22T04:57:49;23.38;;;9.43;;
81508;SDS011;70930;52.412;13.554;2024-03-22T05:00:18;18.02;;;9.25;;
81508;SDS011;70930;52.412;13.554;2024-03-22T05:02:44;21.38;;;9.90;;
81508;SDS011;70930;52.412;13.554;2024-03-22T05:05:09;17.85;;;8.50;;
81508;SDS011;70930;52.412;13.554;2024-03-22T05:07:34;22.70;;;9.25;;
81508;SDS011;70930;52.412;13.554;2024-03-22T05:10:01;23.38;;;9.77;;
81508;SDS011;70930;52.412;13.554;2024-03-22T05:12:26;17.63;;;8.82;;
81508;SDS011;70930;52.412;13.554;2024-03-22T05:14:52;15.85;;;8.00;;
81508;SDS011;70930;52.412;13.554;2024-03-22T05:17:17;19.48;;;8.73;;
81508;SDS011;70930;52.412;13.554;2024-03-22T05:19:42;15.90;;;8.25;;
81508;SDS011;70930;52.412;13.554;2024-03-22T05:22:08;15.57;;;8.38;;
81508;SDS011;70930;52.412;13.554;2024-03-22T05:24:33;17.52;;;9.20;;
81508;SDS011;70930;52.412;13.554;2024-03-22T05:26:58;19.40;;;8.07;;
81508;SDS011;70930;52.412;13.554;2024-03-22T05:29:24;17.38;;;8.77;;
81508;SDS011;70930;52.412;13.554;2024-03-22T05:31:50;17.75;;;8.52;;
81508;SDS011;70930;52.412;13.554;2024-03-22T05:34:16;18.00;;;8.70;;
81508;SDS011;70930;52.412;13.554;2024-03-22T05:36:45;16.83;;;8.63;;
81508;SDS011;70930;52.412;13.554;2024-03-22T05:39:11;16.33;;;8.73;;
81508;SDS011;70930;52.412;13.554;2024-03-22T05:41:37;18.63;;;8.82;;
81508;SDS011;70930;52.412;13.554;2024-03-22T05:44:03;17.65;;;9.40;;
81508;SDS011;70930;52.412;13.554;2024-03-22T05:46:29;16.90;;;8.30;;
81508;SDS011;70930;52.412;13.554;2024-03-22T05:48:54;17.67;;;8.90;;
81508;SDS011;70930;52.412;13.554;2024-03-22T05:51:20;17.77;;;9.07;;
81508;SDS011;70930;52.412;13.554;2024-03-22T05:53:45;18.03;;;8.80;;
81508;SDS011;70930;52.412;13.554;2024-03-22T05:56:11;21.27;;;9.10;;
81508;SDS011;70930;52.412;13.554;2024-03-22T05:58:36;17.77;;;9.35;;
81508;SDS011;70930;52.412;13.554;2024-03-22T06:01:02;17.83;;;8.80;;
81508;SDS011;70930;52.412;13.554;2024-03-22T06:05:56;15.17;;;8.13;;
81508;SDS011;70930;52.412;13.554;2024-03-22T06:08:24;17.80;;;8.52;;
81508;SDS011;70930;52.412;13.554;2024-03-22T06:10:50;16.23;;;8.15;;
81508;SDS011;70930;52.412;13.554;2024-03-22T06:13:17;17.27;;;8.95;;
81508;SDS011;70930;52.412;13.554;2024-03-22T06:15:43;15.80;;;8.80;;
81508;SDS011;70930;52.412;13.554;2024-03-22T06:18:10;17.52;;;8.48;;
81508;SDS011;70930;52.412;13.554;2024-03-22T06:20:36;17.13;;;8.02;;
81508;SDS011;70930;52.412;13.554;2024-03-22T06:23:01;15.75;;;7.97;;
81508;SDS011;70930;52.412;13.554;2024-03-22T06:25:27;15.88;;;8.88;;
81508;SDS011;70930;52.412;13.554;2024-03-22T06:27:52;18.27;;;9.52;;
81508;SDS011;70930;52.412;13.554;2024-03-22T06:30:17;17.27;;;8.95;;
81508;SDS011;70930;52.412;13.554;2024-03-22T06:32:43;14.93;;;8.40;;
81508;SDS011;70930;52.412;13.554;2024-03-22T06:35:08;17.98;;;8.88;;
81508;SDS011;70930;52.412;13.554;2024-03-22T06:37:33;15.43;;;8.88;;
81508;SDS011;70930;52.412;13.554;2024-03-22T06:39:59;15.48;;;8.30;;
81508;SDS011;70930;52.412;13.554;2024-03-22T06:42:24;18.98;;;10.13;;
81508;SDS011;70930;52.412;13.554;2024-03-22T06:44:51;17.95;;;9.02;;
81508;SDS011;70930;52.412;13.554;2024-03-22T06:47:17;16.05;;;9.18;;
81508;SDS011;70930;52.412;13.554;2024-03-22T06:49:42;20.83;;;9.15;;
81508;SDS011;70930;52.412;13.554;2024-03-22T06:52:07;13.55;;;7.88;;
81508;SDS011;70930;52.412;13.554;2024-03-22T06:54:33;18.58;;;9.70;;
81508;SDS011;70930;52.412;13.554;2024-03-22T06:56:58;15.95;;;8.27;;
81508;SDS011;70930;52.412;13.554;2024-03-22T06:59:23;15.57;;;8.57;;
81508;SDS011;70930;52.412;13.554;2024-03-22T07:01:49;17.48;;;9.15;;
81508;SDS011;70930;52.412;13.554;2024-03-22T07:04:14;17.40;;;8.70;;
81508;SDS011;70930;52.412;13.554;2024-03-22T07:06:39;19.13;;;9.55;;
81508;SDS011;70930;52.412;13.554;2024-03-22T07:09:07;18.45;;;9.63;;
81508;SDS011;70930;52.412;13.554;2024-03-22T07:11:33;17.52;;;9.88;;
81508;SDS011;70930;52.412;13.554;2024-03-22T07:14:01;19.48;;;10.00;;
81508;SDS011;70930;52.412;13.554;2024-03-22T07:16:26;14.93;;;9.02;;
81508;SDS011;70930;52.412;13.554;2024-03-22T07:18:51;22.58;;;11.02;;
81508;SDS011;70930;52.412;13.554;2024-03-22T07:21:19;18.63;;;10.05;;
81508;SDS011;70930;52.412;13.554;2024-03-22T07:23:45;18.13;;;9.05;;
81508;SDS011;70930;52.412;13.554;2024-03-22T07:26:10;18.65;;;9.90;;
81508;SDS011;70930;52.412;13.554;2024-03-22T07:28:35;18.13;;;10.40;;
81508;SDS011;70930;52.412;13.554;2024-03-22T07:31:01;20.55;;;9.73;;
81508;SDS011;70930;52.412;13.554;2024-03-22T07:33:26;17.05;;;9.35;;
81508;SDS011;70930;52.412;13.554;2024-03-22T07:35:51;18.42;;;10.32;;
81508;SDS011;70930;52.412;13.554;2024-03-22T07:38:19;17.65;;;9.52;;
81508;SDS011;70930;52.412;13.554;2024-03-22T07:40:44;20.00;;;10.13;;
81508;SDS011;70930;52.412;13.554;2024-03-22T07:43:09;21.65;;;10.73;;
81508;SDS011;70930;52.412;13.554;2024-03-22T07:45:35;20.58;;;11.07;;
81508;SDS011;70930;52.412;13.554;2024-03-22T07:48:00;19.98;;;10.98;;
81508;SDS011;70930;52.412;13.554;2024-03-22T07:50:26;17.88;;;10.13;;
81508;SDS011;70930;52.412;13.554;2024-03-22T07:52:52;21.83;;;11.77;;
81508;SDS011;70930;52.412;13.554;2024-03-22T07:55:18;17.80;;;9.85;;
81508;SDS011;70930;52.412;13.554;2024-03-22T07:57:43;17.58;;;9.95;;
81508;SDS011;70930;52.412;13.554;2024-03-22T08:00:09;21.63;;;10.90;;
81508;SDS011;70930;52.412;13.554;2024-03-22T08:02:35;17.75;;;10.32;;
81508;SDS011;70930;52.412;13.554;2024-03-22T08:05:00;19.08;;;10.82;;
81508;SDS011;70930;52.412;13.554;2024-03-22T08:07:26;24.05;;;11.50;;
81508;SDS011;70930;52.412;13.554;2024-03-22T08:09:52;24.33;;;11.45;;
81508;SDS011;70930;52.412;13.554;2024-03-22T08:12:17;18.50;;;11.25;;
81508;SDS011;70930;52.412;13.554;2024-03-22T08:14:44;18.10;;;10.82;;
81508;SDS011;70930;52.412;13.554;2024-03-22T08:17:10;19.85;;;9.80;;
81508;SDS011;70930;52.412;13.554;2024-03-22T08:19:39;18.23;;;10.57;;
81508;SDS011;70930;52.412;13.554;2024-03-22T08:22:05;19.70;;;10.82;;
81508;SDS011;70930;52.412;13.554;2024-03-22T08:24:30;19.30;;;10.73;;
81508;SDS011;70930;52.412;13.554;2024-03-22T08:26:56;20.83;;;10.95;;
81508;SDS011;70930;52.412;13.554;2024-03-22T08:29:21;19.70;;;12.18;;
81508;SDS011;70930;52.412;13.554;2024-03-22T08:31:47;19.55;;;11.35;;
81508;SDS011;70930;52.412;13.554;2024-03-22T08:34:12;19.65;;;10.23;;
81508;SDS011;70930;52.412;13.554;2024-03-22T08:36:37;19.20;;;10.93;;
81508;SDS011;70930;52.412;13.554;2024-03-22T08:39:03;19.23;;;10.80;;
81508;SDS011;70930;52.412;13.554;2024-03-22T08:41:30;20.52;;;11.05;;
81508;SDS011;70930;52.412;13.554;2024-03-22T08:43:55;18.65;;;10.05;;
81508;SDS011;70930;52.412;13.554;2024-03-22T08:46:22;19.40;;;11.07;;
81508;SDS011;70930;52.412;13.554;2024-03-22T08:48:49;19.00;;;10.50;;
81508;SDS011;70930;52.412;13.554;2024-03-22T08:51:15;18.10;;;10.70;;
81508;SDS011;70930;52.412;13.554;2024-03-22T08:53:40;20.55;;;10.95;;
81508;SDS011;70930;52.412;13.554;2024-03-22T08:56:05;18.25;;;10.35;;
81508;SDS011;70930;52.412;13.554;2024-03-22T08:58:31;17.85;;;10.02;;
81508;SDS011;70930;52.412;13.554;2024-03-22T09:00:56;20.00;;;10.50;;
81508;SDS011;70930;52.412;13.554;2024-03-22T09:03:21;18.25;;;10.50;;
81508;SDS011;70930;52.412;13.554;2024-03-22T09:05:47;18.67;;;10.80;;
81508;SDS011;70930;52.412;13.554;2024-03-22T09:08:12;19.15;;;10.30;;
81508;SDS011;70930;52.412;13.554;2024-03-22T09:10:38;20.05;;;10.88;;
81508;SDS011;70930;52.412;13.554;2024-03-22T09:13:03;20.75;;;11.13;;
81508;SDS011;70930;52.412;13.554;2024-03-22T09:15:28;18.73;;;10.50;;
81508;SDS011;70930;52.412;13.554;2024-03-22T09:17:54;18.38;;;10.20;;
81508;SDS011;70930;52.412;13.554;2024-03-22T09:20:19;18.17;;;10.15;;
81508;SDS011;70930;52.412;13.554;2024-03-22T09:22:45;19.05;;;10.05;;
81508;SDS011;70930;52.412;13.554;2024-03-22T09:25:11;18.60;;;11.07;;
81508;SDS011;70930;52.412;13.554;2024-03-22T09:27:36;19.85;;;11.15;;
81508;SDS011;70930;52.412;13.554;2024-03-22T09:30:01;18.58;;;10.75;;
81508;SDS011;70930;52.412;13.554;2024-03-22T09:32:29;18.65;;;10.80;;
81508;SDS011;70930;52.412;13.554;2024-03-22T09:34:54;15.80;;;9.80;;
81508;SDS011;70930;52.412;13.554;2024-03-22T09:37:20;18.02;;;10.30;;
81508;SDS011;70930;52.412;13.554;2024-03-22T09:39:45;19.15;;;10.68;;
81508;SDS011;70930;52.412;13.554;2024-03-22T09:42:12;17.00;;;10.02;;
81508;SDS011;70930;52.412;13.554;2024-03-22T09:44:44;17.63;;;10.35;;
81508;SDS011;70930;52.412;13.554;2024-03-22T09:47:13;15.27;;;9.70;;
81508;SDS011;70930;52.412;13.554;2024-03-22T09:49:40;16.88;;;10.32;;
81508;SDS011;70930;52.412;13.554;2024-03-22T09:52:08;16.20;;;10.23;;
81508;SDS011;70930;52.412;13.554;2024-03-22T09:54:36;17.52;;;9.70;;
81508;SDS011;70930;52.412;13.554;2024-03-22T09:57:02;18.40;;;9.77;;
81508;SDS011;70930;52.412;13.554;2024-03-22T09:59:28;15.55;;;10.45;;
81508;SDS011;70930;52.412;13.554;2024-03-22T10:01:53;17.30;;;9.55;;
81508;SDS011;70930;52.412;13.554;2024-03-22T10:04:19;15.63;;;9.77;;
81508;SDS011;70930;52.412;13.554;2024-03-22T10:06:46;16.73;;;9.70;;
81508;SDS011;70930;52.412;13.554;2024-03-22T10:09:12;16.80;;;9.43;;
81508;SDS011;70930;52.412;13.554;2024-03-22T10:11:38;16.13;;;9.65;;
81508;SDS011;70930;52.412;13.554;2024-03-22T10:14:03;18.08;;;10.70;;
81508;SDS011;70930;52.412;13.554;2024-03-22T10:16:38;15.65;;;8.77;;
81508;SDS011;70930;52.412;13.554;2024-03-22T10:19:04;15.43;;;9.55;;
81508;SDS011;70930;52.412;13.554;2024-03-22T10:21:29;15.13;;;8.82;;
81508;SDS011;70930;52.412;13.554;2024-03-22T10:23:56;17.55;;;9.35;;
81508;SDS011;70930;52.412;13.554;2024-03-22T10:26:21;16.58;;;9.70;;
81508;SDS011;70930;52.412;13.554;2024-03-22T10:28:47;16.83;;;9.93;;
81508;SDS011;70930;52.412;13.554;2024-03-22T10:31:13;15.23;;;9.32;;
81508;SDS011;70930;52.412;13.554;2024-03-22T10:33:40;16.67;;;9.32;;
81508;SDS011;70930;52.412;13.554;2024-03-22T10:36:06;14.82;;;9.70;;
81508;SDS011;70930;52.412;13.554;2024-03-22T10:38:32;14.13;;;9.00;;
81508;SDS011;70930;52.412;13.554;2024-03-22T10:41:01;15.18;;;9.00;;
81508;SDS011;70930;52.412;13.554;2024-03-22T10:43:30;16.23;;;9.80;;
81508;SDS011;70930;52.412;13.554;2024-03-22T10:45:57;15.98;;;8.60;;
81508;SDS011;70930;52.412;13.554;2024-03-22T10:48:26;13.88;;;8.55;;
81508;SDS011;70930;52.412;13.554;2024-03-22T10:50:54;14.02;;;8.55;;
81508;SDS011;70930;52.412;13.554;2024-03-22T10:53:24;14.60;;;8.95;;
81508;SDS011;70930;52.412;13.554;2024-03-22T10:55:52;13.68;;;9.00;;
81508;SDS011;70930;52.412;13.554;2024-03-22T10:58:21;16.48;;;9.27;;
81508;SDS011;70930;52.412;13.554;2024-03-22T11:00:50;13.60;;;8.98;;
81508;SDS011;70930;52.412;13.554;2024-03-22T11:05:45;13.82;;;8.20;;
81508;SDS011;70930;52.412;13.554;2024-03-22T11:08:22;14.98;;;9.13;;
81508;SDS011;70930;52.412;13.554;2024-03-22T11:10:49;17.10;;;9.23;;
81508;SDS011;70930;52.412;13.554;2024-03-22T11:13:15;16.23;;;9.65;;
81508;SDS011;70930;52.412;13.554;2024-03-22T11:15:41;14.98;;;8.77;;
81508;SDS011;70930;52.412;13.554;2024-03-22T11:18:07;14.85;;;9.02;;
81508;SDS011;70930;52.412;13.554;2024-03-22T11:20:32;15.30;;;9.23;;
81508;SDS011;70930;52.412;13.554;2024-03-22T11:23:03;15.90;;;9.05;;
81508;SDS011;70930;52.412;13.554;2024-03-22T11:25:30;15.98;;;9.10;;
81508;SDS011;70930;52.412;13.554;2024-03-22T11:27:57;16.10;;;8.60;;
81508;SDS011;70930;52.412;13.554;2024-03-22T11:30:24;14.85;;;8.50;;
81508;SDS011;70930;52.412;13.554;2024-03-22T11:32:50;18.08;;;9.40;;
81508;SDS011;70930;52.412;13.554;2024-03-22T11:35:16;16.45;;;9.52;;
81508;SDS011;70930;52.412;13.554;2024-03-22T11:37:41;17.65;;;10.18;;
81508;SDS011;70930;52.412;13.554;2024-03-22T11:40:10;18.00;;;10.50;;
81508;SDS011;70930;52.412;13.554;2024-03-22T11:42:38;15.60;;;10.02;;
81508;SDS011;70930;52.412;13.554;2024-03-22T11:45:05;16.10;;;9.52;;
81508;SDS011;70930;52.412;13.554;2024-03-22T11:47:33;17.48;;;9.93;;
81508;SDS011;70930;52.412;13.554;2024-03-22T11:49:59;19.02;;;10.68;;
81508;SDS011;70930;52.412;13.554;2024-03-22T11:52:28;20.13;;;10.15;;
81508;SDS011;70930;52.412;13.554;2024-03-22T11:54:54;18.25;;;10.32;;
81508;SDS011;70930;52.412;13.554;2024-03-22T11:57:23;17.58;;;9.85;;
81508;SDS011;70930;52.412;13.554;2024-03-22T11:59:50;17.40;;;10.88;;
81508;SDS011;70930;52.412;13.554;2024-03-22T12:02:15;17.58;;;10.57;;
81508;SDS011;70930;52.412;13.554;2024-03-22T12:04:45;19.25;;;10.73;;
81508;SDS011;70930;52.412;13.554;2024-03-22T12:07:16;18.80;;;10.48;;
81508;SDS011;70930;52.412;13.554;2024-03-22T12:09:42;17.42;;;9.35;;
81508;SDS011;70930;52.412;13.554;2024-03-22T12:12:09;17.25;;;10.23;;
81508;SDS011;70930;52.412;13.554;2024-03-22T12:14:36;20.40;;;10.50;;
81508;SDS011;70930;52.412;13.554;2024-03-22T12:17:07;22.10;;;10.68;;
81508;SDS011;70930;52.412;13.554;2024-03-22T12:19:33;19.25;;;9.52;;
81508;SDS011;70930;52.412;13.554;2024-03-22T12:21:59;20.73;;;10.65;;
81508;SDS011;70930;52.412;13.554;2024-03-22T12:26:53;18.53;;;10.37;;
81508;SDS011;70930;52.412;13.554;2024-03-22T12:29:19;20.50;;;11.07;;
81508;SDS011;70930;52.412;13.554;2024-03-22T12:31:45;19.80;;;11.77;;
81508;SDS011;70930;52.412;13.554;2024-03-22T12:34:11;20.98;;;10.85;;
81508;SDS011;70930;52.412;13.554;2024-03-22T12:36:37;20.70;;;12.68;;
81508;SDS011;70930;52.412;13.554;2024-03-22T12:39:02;19.52;;;11.52;;
81508;SDS011;70930;52.412;13.554;2024-03-22T12:41:28;20.52;;;11.50;;
81508;SDS011;70930;52.412;13.554;2024-03-22T12:43:55;21.17;;;11.80;;
81508;SDS011;70930;52.412;13.554;2024-03-22T12:46:20;19.55;;;12.35;;
81508;SDS011;70930;52.412;13.554;2024-03-22T12:48:46;24.08;;;12.93;;
81508;SDS011;70930;52.412;13.554;2024-03-22T12:51:11;20.13;;;11.38;;
81508;SDS011;70930;52.412;13.554;2024-03-22T12:53:37;22.30;;;11.75;;
81508;SDS011;70930;52.412;13.554;2024-03-22T12:56:02;19.83;;;11.52;;
81508;SDS011;70930;52.412;13.554;2024-03-22T12:58:29;20.92;;;11.00;;
81508;SDS011;70930;52.412;13.554;2024-03-22T13:00:55;20.02;;;11.77;;
81508;SDS011;70930;52.412;13.554;2024-03-22T13:03:20;22.80;;;12.63;;
81508;SDS011;70930;52.412;13.554;2024-03-22T13:05:48;21.15;;;11.20;;
81508;SDS011;70930;52.412;13.554;2024-03-22T13:08:14;22.55;;;12.18;;
81508;SDS011;70930;52.412;13.554;2024-03-22T13:10:39;20.38;;;11.35;;
81508;SDS011;70930;52.412;13.554;2024-03-22T13:13:08;24.77;;;13.10;;
81508;SDS011;70930;52.412;13.554;2024-03-22T13:15:34;22.13;;;12.07;;
81508;SDS011;70930;52.412;13.554;2024-03-22T13:18:00;24.20;;;12.45;;
81508;SDS011;70930;52.412;13.554;2024-03-22T13:20:25;25.83;;;12.70;;
81508;SDS011;70930;52.412;13.554;2024-03-22T13:22:51;23.95;;;12.57;;
81508;SDS011;70930;52.412;13.554;2024-03-22T13:25:16;27.40;;;13.75;;
81508;SDS011;70930;52.412;13.554;2024-03-22T13:27:41;22.25;;;12.07;;
81508;SDS011;70930;52.412;13.554;2024-03-22T13:30:07;24.52;;;13.80;;
81508;SDS011;70930;52.412;13.554;2024-03-22T13:32:37;26.98;;;13.95;;
81508;SDS011;70930;52.412;13.554;2024-03-22T13:35:03;23.30;;;12.38;;
81508;SDS011;70930;52.412;13.554;2024-03-22T13:37:30;20.95;;;11.50;;
81508;SDS011;70930;52.412;13.554;2024-03-22T13:39:56;21.08;;;11.07;;
81508;SDS011;70930;52.412;13.554;2024-03-22T13:42:21;21.40;;;11.38;;
81508;SDS011;70930;52.412;13.554;2024-03-22T13:44:46;20.15;;;10.88;;
81508;SDS011;70930;52.412;13.554;2024-03-22T13:47:12;19.08;;;10.80;;
81508;SDS011;70930;52.412;13.554;2024-03-22T13:49:37;20.95;;;11.85;;
81508;SDS011;70930;52.412;13.554;2024-03-22T13:52:09;21.98;;;12.55;;
81508;SDS011;70930;52.412;13.554;2024-03-22T13:54:35;24.23;;;12.75;;
81508;SDS011;70930;52.412;13.554;2024-03-22T13:57:00;20.58;;;10.77;;
81508;SDS011;70930;52.412;13.554;2024-03-22T13:59:28;20.05;;;11.00;;
81508;SDS011;70930;52.412;13.554;2024-03-22T14:01:54;21.40;;;11.13;;
81508;SDS011;70930;52.412;13.554;2024-03-22T14:04:22;16.00;;;8.45;;
81508;SDS011;70930;52.412;13.554;2024-03-22T14:06:48;18.05;;;10.02;;
81508;SDS011;70930;52.412;13.554;2024-03-22T14:09:13;18.85;;;9.93;;
81508;SDS011;70930;52.412;13.554;2024-03-22T14:11:40;20.13;;;10.60;;
81508;SDS011;70930;52.412;13.554;2024-03-22T14:14:07;21.20;;;10.70;;
81508;SDS011;70930;52.412;13.554;2024-03-22T14:16:33;19.88;;;10.52;;